createdAt,value
2022-10-06T00:02:19.383Z,13.95
2022-10-06T00:07:20.853Z,14.03
2022-10-06T00:12:22.221Z,14.05
2022-10-06T00:17:23.589Z,14.03
2022-10-06T00:22:24.950Z,14.07
2022-10-06T00:27:26.411Z,14.11
2022-10-06T00:32:27.824Z,13.99
2022-10-06T00:37:29.651Z,13.88
2022-10-06T00:42:32.785Z,13.89
2022-10-06T00:47:34.206Z,13.83
2022-10-06T00:52:35.899Z,13.80
2022-10-06T00:57:39.688Z,13.90
2022-10-06T01:02:55.149Z,13.93
2022-10-06T01:07:57.123Z,14.13
2022-10-06T01:12:59.026Z,14.12
2022-10-06T01:18:13.250Z,14.16
2022-10-06T01:23:15.187Z,14.09
2022-10-06T01:28:16.616Z,14.23
2022-10-06T01:33:19.789Z,14.27
2022-10-06T01:38:21.446Z,14.39
2022-10-06T01:43:22.819Z,14.29
2022-10-06T01:48:24.778Z,14.46
2022-10-06T01:53:26.182Z,14.43
2022-10-06T01:58:27.907Z,14.52
2022-10-06T02:03:29.579Z,14.53
2022-10-06T02:08:31.516Z,14.43
2022-10-06T02:13:33.171Z,14.50
2022-10-06T02:18:35.598Z,14.54
2022-10-06T02:23:37.004Z,14.52
2022-10-06T02:28:38.501Z,14.57
2022-10-06T02:33:40.706Z,14.51
2022-10-06T02:38:42.363Z,14.51
2022-10-06T02:43:43.746Z,14.50
2022-10-06T02:48:45.107Z,14.42
2022-10-06T02:53:48.059Z,14.38
2022-10-06T02:58:50.959Z,14.39
2022-10-06T03:03:53.239Z,14.53
2022-10-06T03:09:03.539Z,14.59
2022-10-06T03:14:05.810Z,14.47
2022-10-06T03:19:09.163Z,14.55
2022-10-06T03:24:11.141Z,14.42
2022-10-06T03:29:12.871Z,14.49
2022-10-06T03:34:14.255Z,14.50
2022-10-06T03:39:15.643Z,14.53
2022-10-06T03:44:17.062Z,14.49
2022-10-06T03:49:18.503Z,14.42
2022-10-06T03:54:19.926Z,14.36
2022-10-06T03:59:21.270Z,14.30
2022-10-06T04:04:22.631Z,14.24
2022-10-06T04:09:23.993Z,14.26
2022-10-06T04:14:25.388Z,14.21
2022-10-06T04:19:26.761Z,14.16
2022-10-06T04:24:28.144Z,14.15
2022-10-06T04:29:29.519Z,14.09
2022-10-06T04:34:30.897Z,14.02
2022-10-06T04:39:32.285Z,13.74
2022-10-06T04:44:33.685Z,13.75
2022-10-06T04:49:35.161Z,13.82
2022-10-06T04:54:36.523Z,13.78
2022-10-06T04:59:37.932Z,13.72
2022-10-06T05:04:39.743Z,13.59
2022-10-06T05:09:41.166Z,13.66
2022-10-06T05:14:42.524Z,13.68
2022-10-06T05:19:43.905Z,13.64
2022-10-06T05:24:45.295Z,13.55
2022-10-06T05:29:47.158Z,13.47
2022-10-06T05:34:48.527Z,13.30
2022-10-06T05:39:49.886Z,13.33
2022-10-06T05:44:51.258Z,13.45
2022-10-06T05:49:52.626Z,13.49
2022-10-06T05:54:53.967Z,13.43
2022-10-06T05:59:55.303Z,13.48
2022-10-06T06:04:56.790Z,13.49
2022-10-06T06:09:58.161Z,13.45
2022-10-06T06:14:59.562Z,13.41
2022-10-06T06:20:00.930Z,13.38
2022-10-06T06:25:02.324Z,13.40
2022-10-06T06:30:24.130Z,13.37
2022-10-06T06:35:25.533Z,13.46
2022-10-06T06:40:26.893Z,13.22
2022-10-06T06:45:34.270Z,13.32
2022-10-06T06:50:35.674Z,13.40
2022-10-06T06:55:37.074Z,13.69
2022-10-06T07:00:38.451Z,14.01
2022-10-06T07:05:39.926Z,14.13
2022-10-06T07:10:42.943Z,13.92
2022-10-06T07:15:49.143Z,14.10
2022-10-06T07:20:50.574Z,14.28
2022-10-06T07:25:51.942Z,14.56
2022-10-06T07:30:53.381Z,14.46
2022-10-06T07:35:54.929Z,14.63
2022-10-06T07:46:18.867Z,14.96
2022-10-06T07:51:20.435Z,15.37
2022-10-06T07:56:21.862Z,15.45
2022-10-06T08:01:23.367Z,15.29
2022-10-06T08:06:24.829Z,15.48
2022-10-06T08:11:26.226Z,15.51
2022-10-06T08:16:28.005Z,15.65
2022-10-06T08:21:31.957Z,15.75
2022-10-06T08:26:33.346Z,15.78
2022-10-06T08:31:34.815Z,15.66
2022-10-06T08:36:36.433Z,15.47
2022-10-06T08:41:43.658Z,15.51
2022-10-06T08:47:09.627Z,15.57
2022-10-06T08:52:29.616Z,15.81
2022-10-06T08:57:43.713Z,15.64
2022-10-06T09:02:47.814Z,15.76
2022-10-06T09:08:22.454Z,15.81
2022-10-06T09:13:40.778Z,15.68
2022-10-06T09:19:16.451Z,15.93
2022-10-06T09:24:20.043Z,15.92
2022-10-06T09:29:21.645Z,15.87
2022-10-06T09:34:46.924Z,15.86
2022-10-06T09:39:51.683Z,15.83
2022-10-06T09:45:03.326Z,15.99
2022-10-06T09:50:18.476Z,15.95
2022-10-06T09:55:20.046Z,16.07
2022-10-06T10:00:34.451Z,16.07
2022-10-06T10:05:47.002Z,16.21
2022-10-06T10:10:50.845Z,16.26
2022-10-06T10:15:59.550Z,16.22
2022-10-06T10:21:03.733Z,16.19
2022-10-06T10:26:42.802Z,15.89
2022-10-06T10:32:15.248Z,16.04
2022-10-06T10:37:29.253Z,16.04
2022-10-06T10:42:44.333Z,16.08
2022-10-06T10:47:49.065Z,15.95
2022-10-06T10:52:52.328Z,15.95
2022-10-06T10:57:56.945Z,15.90
2022-10-06T11:03:01.027Z,15.95
2022-10-06T11:08:21.016Z,15.81
2022-10-06T11:13:47.087Z,15.93
2022-10-06T11:19:16.189Z,16.08
2022-10-06T11:24:30.700Z,15.94
2022-10-06T11:29:53.436Z,15.82
2022-10-06T11:34:54.972Z,15.87
2022-10-06T11:40:16.749Z,15.96
2022-10-06T11:45:30.718Z,16.04
2022-10-06T11:50:37.841Z,16.06
2022-10-06T11:55:39.358Z,15.96
2022-10-06T12:00:44.006Z,15.83
2022-10-06T12:06:00.732Z,15.75
2022-10-06T12:11:02.413Z,15.76
2022-10-06T12:17:08.392Z,15.93
2022-10-06T12:21:58.134Z,15.95
2022-10-06T12:27:10.858Z,16.00
2022-10-06T12:32:30.811Z,16.02
2022-10-06T12:37:32.183Z,16.04
2022-10-06T12:42:33.582Z,15.94
2022-10-06T12:47:41.218Z,16.06
2022-10-06T12:52:53.798Z,15.99
2022-10-06T12:57:55.229Z,15.93
2022-10-06T13:02:57.027Z,15.83
2022-10-06T13:08:04.455Z,16.01
2022-10-06T13:13:21.489Z,15.78
2022-10-06T13:18:23.211Z,15.51
2022-10-06T13:23:33.051Z,15.50
2022-10-06T13:28:43.334Z,15.43
2022-10-06T13:33:48.385Z,15.40
2022-10-06T13:38:50.278Z,15.51
2022-10-06T13:43:59.634Z,15.39
2022-10-06T13:49:11.330Z,15.32
2022-10-06T13:54:32.526Z,15.31
2022-10-06T13:59:38.143Z,15.28
2022-10-06T14:04:39.777Z,15.14
2022-10-06T14:09:42.207Z,15.15
2022-10-06T14:14:52.594Z,15.11
2022-10-06T14:19:54.465Z,15.15
2022-10-06T14:24:55.815Z,15.09
2022-10-06T14:29:57.513Z,15.06
2022-10-06T14:34:59.433Z,15.13
2022-10-06T14:40:01.367Z,15.13
2022-10-06T14:45:03.626Z,15.11
2022-10-06T14:50:05.575Z,14.97
2022-10-06T14:55:07.771Z,15.06
2022-10-06T15:00:09.928Z,15.03
2022-10-06T15:05:11.306Z,15.05
2022-10-06T15:10:12.718Z,15.08
2022-10-06T15:15:14.151Z,15.09
2022-10-06T15:20:15.614Z,15.04
2022-10-06T15:25:17.103Z,14.99
2022-10-06T15:30:18.452Z,15.08
2022-10-06T15:35:19.847Z,15.06
2022-10-06T15:40:21.211Z,15.09
2022-10-06T15:45:22.760Z,15.09
2022-10-06T15:50:24.326Z,15.14
2022-10-06T15:55:25.721Z,15.09
2022-10-06T16:00:27.082Z,15.12
2022-10-06T16:05:28.440Z,15.10
2022-10-06T16:10:29.788Z,15.02
2022-10-06T16:15:31.165Z,15.08
2022-10-06T16:20:32.546Z,15.01
2022-10-06T16:25:45.245Z,14.98
2022-10-06T16:30:56.232Z,15.02
2022-10-06T16:35:58.840Z,14.89
2022-10-06T16:41:02.033Z,14.97
2022-10-06T16:46:05.621Z,14.81
2022-10-06T16:51:20.289Z,14.79
2022-10-06T16:56:21.593Z,14.79
2022-10-06T17:01:26.281Z,14.77
2022-10-06T17:06:27.648Z,14.75
2022-10-06T17:11:29.097Z,14.69
2022-10-06T17:16:33.610Z,14.52
2022-10-06T17:21:55.737Z,14.57
2022-10-06T17:26:57.541Z,14.48
2022-10-06T17:31:59.884Z,14.48
2022-10-06T17:37:02.367Z,14.46
2022-10-06T17:42:03.988Z,14.34
2022-10-06T17:47:05.355Z,14.13
2022-10-06T17:52:06.749Z,14.25
2022-10-06T17:57:08.115Z,14.20
2022-10-06T18:02:09.638Z,13.99
2022-10-06T18:07:11.043Z,14.02
2022-10-06T18:12:12.439Z,13.67
2022-10-06T18:17:13.804Z,13.63
2022-10-06T18:22:15.178Z,13.71
2022-10-06T18:27:16.540Z,13.78
2022-10-06T18:37:39.690Z,13.68
2022-10-06T18:42:41.435Z,13.61
2022-10-06T18:47:43.195Z,13.62
2022-10-06T18:52:44.775Z,13.51
2022-10-06T18:57:46.212Z,13.49
2022-10-06T19:02:50.519Z,13.48
2022-10-06T19:07:53.679Z,13.11
2022-10-06T19:12:55.091Z,13.30
2022-10-06T19:17:56.485Z,13.31
2022-10-06T19:22:57.874Z,13.16
2022-10-06T19:27:59.267Z,13.14
2022-10-06T19:33:00.740Z,13.28
2022-10-06T19:38:02.142Z,12.95
2022-10-06T19:43:03.537Z,12.98
2022-10-06T19:48:05.012Z,13.02
2022-10-06T19:53:06.380Z,12.96
2022-10-06T19:58:07.798Z,12.88
2022-10-06T20:03:09.252Z,12.81
2022-10-06T20:08:10.659Z,12.81
2022-10-06T20:13:12.065Z,12.66
2022-10-06T20:18:13.517Z,12.62
2022-10-06T20:23:14.866Z,12.55
2022-10-06T20:28:16.277Z,12.58
2022-10-06T20:33:17.669Z,12.66
2022-10-06T20:38:19.041Z,12.36
2022-10-06T20:43:20.383Z,12.38
2022-10-06T20:48:21.748Z,12.54
2022-10-06T20:53:28.125Z,12.33
2022-10-06T20:58:29.489Z,12.30
2022-10-06T21:03:32.120Z,12.34
2022-10-06T21:08:33.463Z,12.22
2022-10-06T21:13:34.815Z,12.08
2022-10-06T21:18:36.195Z,12.23
2022-10-06T21:23:47.991Z,11.99
2022-10-06T21:28:50.111Z,12.23
2022-10-06T21:33:52.598Z,12.26
2022-10-06T21:38:56.910Z,12.09
2022-10-06T21:44:09.656Z,12.05
2022-10-06T21:49:13.446Z,12.15
2022-10-06T21:54:15.327Z,12.03
2022-10-06T21:59:18.427Z,11.99
2022-10-06T22:04:19.800Z,11.99
2022-10-06T22:09:21.164Z,11.82
2022-10-06T22:14:22.510Z,11.78
2022-10-06T22:19:23.878Z,11.85
2022-10-06T22:24:25.278Z,11.83
2022-10-06T22:29:26.725Z,11.84
2022-10-06T22:34:28.230Z,11.70
2022-10-06T22:39:29.575Z,11.72
2022-10-06T22:44:30.985Z,11.67
2022-10-06T22:49:32.325Z,11.69
2022-10-06T22:54:33.734Z,11.61
2022-10-06T22:59:35.252Z,11.59
2022-10-06T23:04:36.603Z,11.42
2022-10-06T23:09:38.000Z,11.42
2022-10-06T23:14:39.385Z,11.52
2022-10-06T23:19:40.821Z,11.47
2022-10-06T23:24:42.187Z,11.50
2022-10-06T23:29:43.573Z,11.29
2022-10-06T23:34:45.025Z,11.25
2022-10-06T23:39:46.471Z,11.39
2022-10-06T23:44:47.821Z,11.47
2022-10-06T23:49:49.360Z,11.32
2022-10-06T23:54:50.728Z,11.19
2022-10-06T23:59:52.183Z,11.02
